Time;durP1;ratioP1;P1;durP2;ratioP2;P2;SDS_P1;SDS_P2;PMS_P1;PMS_P2;Temp;Humidity;BMP_temperature;BMP_pressure;BME280_temperature;BME280_humidity;BME280_pressure;Samples;Min_cycle;Max_cycle;Signal;HPM_P1;HPM_P2
2022/01/16 00:00:26;;;;;;;;;;;;;;;22.94;16.62;98588.41;5077869;28;1906;-73
2022/01/16 00:05:30;;;;;;;;;;;;;;;22.31;17.26;98595.78;5078066;28;1017;-72
2022/01/16 00:07:55;;;;;;;;;;;;;;;22.34;17.16;98600.59;5077818;28;907;-73
2022/01/16 00:10:22;;;;;;;;;;;;;;;22.19;17.53;98607.78;5077903;28;884;-72
2022/01/16 00:12:48;;;;;;;;;;;;;;;22.12;17.31;98605.06;5116023;28;1017;-73
2022/01/16 00:15:14;;;;;;;;;;;;;;;22.06;17.58;98590.56;5116072;28;966;-73
2022/01/16 00:17:51;;;;;;;;;;;;;;;22.01;17.46;98599.56;5115933;28;986;-72
2022/01/16 00:20:16;;;;;;;;;;;;;;;22.00;17.74;98603.66;5075176;28;1898;-72
2022/01/16 00:22:44;;;;;;;;;;;;;;;22.10;17.43;98607.53;5075362;28;1002;-72
2022/01/16 00:25:10;;;;;;;;;;;;;;;21.95;17.47;98597.69;5054775;28;1008;-72
2022/01/16 00:27:35;;;;;;;;;;;;;;;21.94;17.53;98605.38;5055058;28;993;-71
2022/01/16 00:30:01;;;;;;;;;;;;;;;22.06;17.64;98623.78;5054784;28;1019;-72
2022/01/16 00:32:26;;;;;;;;;;;;;;;22.49;17.38;98629.47;5015247;28;1123;-72
2022/01/16 00:34:51;;;;;;;;;;;;;;;22.83;16.61;98648.22;5015382;28;993;-72
2022/01/16 00:37:17;;;;;;;;;;;;;;;22.30;17.23;98650.91;5015479;28;1001;-73
2022/01/16 00:39:42;;;;;;;;;;;;;;;21.35;18.18;98658.97;5015047;28;1034;-72
2022/01/16 00:42:08;;;;;;;;;;;;;;;21.78;17.81;98690.25;5015118;28;1914;-72
2022/01/16 00:44:35;;;;;;;;;;;;;;;22.49;17.19;98736.44;4999136;28;1491;-73
2022/01/16 00:47:00;;;;;;;;;;;;;;;22.01;17.59;98774.47;4995620;28;1005;-71
2022/01/16 00:49:26;;;;;;;;;;;;;;;22.12;17.27;98783.63;4975877;28;1043;-72
2022/01/16 00:51:51;;;;;;;;;;;;;;;22.14;17.35;98766.22;5008056;28;975;-72
2022/01/16 00:54:16;;;;;;;;;;;;;;;21.75;17.90;98657.13;5015455;28;968;-72
2022/01/16 00:56:42;;;;;;;;;;;;;;;21.95;17.63;98543.84;5009236;28;1106;-72
2022/01/16 00:59:07;;;;;;;;;;;;;;;21.99;17.31;98487.91;4995163;28;970;-72
2022/01/16 01:01:33;;;;;;;;;;;;;;;21.48;17.79;98498.59;4956241;28;1974;-72
2022/01/16 01:03:58;;;;;;;;;;;;;;;21.42;18.04;98467.16;4984191;28;1012;-72
2022/01/16 01:06:24;;;;;;;;;;;;;;;21.78;17.94;98483.47;5011829;28;1105;-73
2022/01/16 01:08:49;;;;;;;;;;;;;;;21.78;17.31;98546.59;4995365;28;936;-72
2022/01/16 01:11:17;;;;;;;;;;;;;;;21.58;17.80;98559.91;4995410;28;933;-72
2022/01/16 01:16:24;;;;;;;;;;;;;;;21.64;18.12;98578.00;4995043;28;1032;-72
2022/01/16 01:18:49;;;;;;;;;;;;;;;21.43;18.23;98592.53;4994941;28;1036;-72
2022/01/16 01:21:28;;;;;;;;;;;;;;;21.30;18.39;98601.63;4994866;28;1973;-72
2022/01/16 01:23:55;;;;;;;;;;;;;;;21.39;18.07;98637.06;4995227;28;987;-72
2022/01/16 01:26:25;;;;;;;;;;;;;;;21.36;17.93;98615.31;4994875;28;1072;-72
2022/01/16 01:28:50;;;;;;;;;;;;;;;21.53;17.93;98585.88;4994654;28;984;-72
2022/01/16 01:31:16;;;;;;;;;;;;;;;21.79;17.69;98568.00;5033115;28;1007;-72
2022/01/16 01:33:41;;;;;;;;;;;;;;;21.99;17.50;98589.91;5075394;28;975;-72
2022/01/16 01:36:07;;;;;;;;;;;;;;;21.28;17.95;98575.75;5076659;28;902;-72
2022/01/16 01:38:32;;;;;;;;;;;;;;;21.92;17.39;98587.22;5076556;28;922;-72
2022/01/16 01:40:58;;;;;;;;;;;;;;;21.39;17.93;98586.13;5076073;28;1975;-72
2022/01/16 01:51:26;;;;;;;;;;;;;;;21.34;18.27;98618.53;5076545;28;878;-72
2022/01/16 01:53:53;;;;;;;;;;;;;;;21.45;17.97;98612.72;5076478;28;1131;-72
2022/01/16 01:56:22;;;;;;;;;;;;;;;21.47;17.99;98607.44;5107159;28;1000;-72
2022/01/16 01:58:48;;;;;;;;;;;;;;;21.74;17.80;98625.16;5076209;28;948;-72
2022/01/16 02:01:13;;;;;;;;;;;;;;;21.59;18.02;98632.31;5076133;28;1890;-72
2022/01/16 02:06:07;;;;;;;;;;;;;;;21.41;17.97;98606.31;5076015;28;935;-72
2022/01/16 02:08:36;;;;;;;;;;;;;;;21.61;17.76;98609.22;5076135;28;812;-72
2022/01/16 02:11:02;;;;;;;;;;;;;;;21.73;17.84;98615.06;5076261;28;870;-72
2022/01/16 02:13:32;;;;;;;;;;;;;;;21.56;17.70;98624.69;5113564;28;1045;-72
2022/01/16 02:31:47;;;;;;;;;;;;;;;22.41;16.92;98647.06;5093451;28;974;-72
2022/01/16 02:34:37;;;;;;;;;;;;;;;21.64;17.80;98648.81;5093247;28;1046;-72
2022/01/16 02:37:07;;;;;;;;;;;;;;;21.94;17.59;98644.25;5066436;28;1110;-71
2022/01/16 02:39:35;;;;;;;;;;;;;;;22.68;16.95;98644.88;5093341;28;931;-72
2022/01/16 02:42:00;;;;;;;;;;;;;;;22.51;16.83;98640.38;5092940;28;1914;-72
2022/01/16 02:46:51;;;;;;;;;;;;;;;22.31;17.29;98629.81;5073500;28;1007;-72
2022/01/16 02:49:26;;;;;;;;;;;;;;;22.98;16.65;98623.19;5073039;28;1008;-72
2022/01/16 02:51:53;;;;;;;;;;;;;;;22.29;17.17;98628.66;5073140;28;1388;-72
2022/01/16 02:54:18;;;;;;;;;;;;;;;21.76;18.03;98628.38;5072971;28;962;-72
2022/01/16 02:56:45;;;;;;;;;;;;;;;21.90;17.52;98626.50;5073116;28;1065;-72
2022/01/16 02:59:11;;;;;;;;;;;;;;;22.89;16.66;98632.28;5073287;28;948;-72
2022/01/16 03:01:36;;;;;;;;;;;;;;;22.36;17.15;98632.13;5072715;28;1898;-72
2022/01/16 03:04:02;;;;;;;;;;;;;;;22.08;17.56;98621.34;5075463;28;1077;-72
2022/01/16 03:06:27;;;;;;;;;;;;;;;21.85;17.55;98622.94;5075234;28;911;-72
2022/01/16 03:08:53;;;;;;;;;;;;;;;22.57;16.99;98624.44;5106994;28;937;-72
2022/01/16 03:11:34;;;;;;;;;;;;;;;22.60;16.99;98624.38;5075443;28;952;-72
2022/01/16 03:14:00;;;;;;;;;;;;;;;21.94;17.77;98615.91;5075478;28;1197;-72
2022/01/16 03:16:25;;;;;;;;;;;;;;;21.56;18.29;98619.03;5075158;28;930;-72
2022/01/16 03:21:57;;;;;;;;;;;;;;;22.09;17.38;98622.94;5074981;28;1981;-72
2022/01/16 03:24:33;;;;;;;;;;;;;;;21.63;18.07;98635.09;5075038;28;964;-72
2022/01/16 03:26:59;;;;;;;;;;;;;;;22.03;17.65;98636.00;5076767;28;938;-72
2022/01/16 03:29:24;;;;;;;;;;;;;;;22.40;17.05;98642.63;5078862;28;881;-73
2022/01/16 03:31:50;;;;;;;;;;;;;;;21.27;18.14;98642.06;5079350;28;944;-72
2022/01/16 03:34:15;;;;;;;;;;;;;;;21.38;18.30;98653.25;5078677;28;921;-71
2022/01/16 03:36:43;;;;;;;;;;;;;;;21.93;17.64;98656.84;5078983;28;916;-72
2022/01/16 03:39:09;;;;;;;;;;;;;;;21.89;17.76;98661.75;5078807;28;865;-72
2022/01/16 03:41:35;;;;;;;;;;;;;;;21.81;17.84;98647.72;5078382;28;1883;-71
2022/01/16 03:44:04;;;;;;;;;;;;;;;22.24;17.22;98652.63;5078635;28;887;-72
2022/01/16 03:46:34;;;;;;;;;;;;;;;22.24;17.54;98657.50;5078550;28;1245;-72
2022/01/16 03:49:09;;;;;;;;;;;;;;;22.18;17.38;98654.38;5078493;28;909;-72
2022/01/16 03:51:35;;;;;;;;;;;;;;;22.25;17.50;98659.91;5116632;28;973;-71
2022/01/16 03:54:00;;;;;;;;;;;;;;;22.71;17.08;98668.75;5116728;28;1015;-72
2022/01/16 03:56:26;;;;;;;;;;;;;;;22.85;16.56;98669.25;5116791;28;1012;-73
2022/01/16 03:58:51;;;;;;;;;;;;;;;22.42;17.02;98674.16;5117013;28;971;-72
2022/01/16 04:01:17;;;;;;;;;;;;;;;22.16;17.55;98679.50;5116378;28;1977;-71
2022/01/16 04:03:42;;;;;;;;;;;;;;;22.19;17.49;98695.66;5116198;28;1058;-72
2022/01/16 04:06:08;;;;;;;;;;;;;;;22.07;17.45;98699.06;5116267;28;1027;-73
2022/01/16 04:08:34;;;;;;;;;;;;;;;22.05;17.52;98693.03;5075381;28;1151;-72
2022/01/16 04:11:00;;;;;;;;;;;;;;;22.18;17.40;98711.06;5075749;28;957;-73
2022/01/16 04:13:25;;;;;;;;;;;;;;;22.85;16.65;98723.16;5075911;28;1016;-73
2022/01/16 04:15:51;;;;;;;;;;;;;;;22.65;16.99;98716.69;5075821;28;966;-72
2022/01/16 04:18:16;;;;;;;;;;;;;;;22.23;17.31;98733.25;5075439;28;1019;-73
2022/01/16 04:20:42;;;;;;;;;;;;;;;22.35;17.51;98732.63;5075756;28;1910;-72
2022/01/16 04:23:10;;;;;;;;;;;;;;;22.14;17.41;98744.34;5060709;28;1068;-73
2022/01/16 04:25:35;;;;;;;;;;;;;;;22.07;17.58;98750.06;5055518;28;998;-73
2022/01/16 04:28:01;;;;;;;;;;;;;;;22.03;17.66;98749.34;5055567;28;986;-73
2022/01/16 04:30:26;;;;;;;;;;;;;;;22.13;17.79;98742.75;5055229;28;1135;-73
2022/01/16 04:32:52;;;;;;;;;;;;;;;21.86;17.74;98754.06;5055281;28;1082;-72
2022/01/16 04:35:17;;;;;;;;;;;;;;;21.67;18.10;98755.59;5055538;28;908;-72
2022/01/16 04:37:43;;;;;;;;;;;;;;;21.25;18.76;98757.75;5054678;28;953;-72
2022/01/16 04:40:10;;;;;;;;;;;;;;;21.82;18.18;98750.50;5072130;28;1977;-72
2022/01/16 04:45:19;;;;;;;;;;;;;;;21.25;18.75;98749.25;5077815;28;1232;-72
2022/01/16 04:47:46;;;;;;;;;;;;;;;21.73;17.91;98742.53;5109356;28;891;-72
2022/01/16 04:50:13;;;;;;;;;;;;;;;21.33;18.26;98745.13;5077464;28;787;-72
2022/01/16 04:52:39;;;;;;;;;;;;;;;21.46;18.36;98750.22;5115522;28;1112;-72
2022/01/16 04:55:06;;;;;;;;;;;;;;;21.37;18.65;98755.59;5098030;28;1004;-72
2022/01/16 04:57:31;;;;;;;;;;;;;;;21.29;18.48;98747.16;5115695;28;846;-73
2022/01/16 04:59:57;;;;;;;;;;;;;;;21.51;18.25;98758.25;5115461;28;884;-72
2022/01/16 05:02:22;;;;;;;;;;;;;;;21.16;18.46;98746.16;5115303;28;1926;-73
2022/01/16 05:04:47;;;;;;;;;;;;;;;21.83;17.62;98750.06;5115385;28;776;-72
2022/01/16 05:07:13;;;;;;;;;;;;;;;20.73;19.13;98743.84;5115198;28;988;-72
2022/01/16 05:09:39;;;;;;;;;;;;;;;21.31;18.13;98755.28;5114810;28;1238;-72
2022/01/16 05:12:10;;;;;;;;;;;;;;;21.10;18.43;98762.00;5115532;28;1029;-72
2022/01/16 05:17:20;;;;;;;;;;;;;;;21.07;18.55;98763.63;5074318;28;960;-73
2022/01/16 05:19:45;;;;;;;;;;;;;;;21.67;18.19;98761.25;5074159;28;1105;-73
2022/01/16 05:22:11;;;;;;;;;;;;;;;20.93;18.81;98746.03;5074517;28;1918;-73
2022/01/16 05:24:36;;;;;;;;;;;;;;;21.26;18.21;98750.88;5056350;28;1009;-73
2022/01/16 05:27:02;;;;;;;;;;;;;;;21.31;18.34;98750.41;5054274;28;1024;-72
2022/01/16 05:29:27;;;;;;;;;;;;;;;21.51;18.18;98746.91;5054408;28;921;-73
2022/01/16 05:31:53;;;;;;;;;;;;;;;21.23;18.53;98748.88;5054404;28;982;-73
2022/01/16 05:34:18;;;;;;;;;;;;;;;21.57;17.93;98750.88;5054466;28;1008;-72
2022/01/16 05:36:44;;;;;;;;;;;;;;;21.39;18.18;98764.47;5054289;28;1133;-72
2022/01/16 05:39:10;;;;;;;;;;;;;;;21.56;17.88;98767.06;5054102;28;1158;-72
2022/01/16 05:41:35;;;;;;;;;;;;;;;21.77;17.90;98771.63;5033643;28;1977;-72
2022/01/16 05:44:01;;;;;;;;;;;;;;;21.56;18.15;98766.28;5033935;28;1187;-73
2022/01/16 05:46:26;;;;;;;;;;;;;;;22.00;17.77;98778.53;5033901;28;999;-73
2022/01/16 05:48:52;;;;;;;;;;;;;;;21.85;17.53;98777.97;5033432;28;1258;-72
2022/01/16 05:51:17;;;;;;;;;;;;;;;21.52;18.13;98782.50;5038486;28;952;-73
2022/01/16 05:53:44;;;;;;;;;;;;;;;21.95;17.40;98770.53;5053984;28;1058;-72
2022/01/16 05:56:10;;;;;;;;;;;;;;;21.56;18.06;98783.25;5033718;28;964;-72
2022/01/16 05:58:35;;;;;;;;;;;;;;;21.69;18.01;98774.97;5033984;28;938;-73
2022/01/16 06:01:01;;;;;;;;;;;;;;;21.37;18.05;98779.06;5034027;28;1898;-73
2022/01/16 06:03:26;;;;;;;;;;;;;;;21.14;18.40;98778.91;5033588;28;1034;-72
2022/01/16 06:05:52;;;;;;;;;;;;;;;21.38;18.14;98788.34;5033445;28;1192;-73
2022/01/16 06:08:17;;;;;;;;;;;;;;;21.44;18.06;98792.31;5033398;28;963;-73
2022/01/16 06:10:42;;;;;;;;;;;;;;;21.87;17.60;98794.56;5033495;28;968;-73
2022/01/16 06:13:08;;;;;;;;;;;;;;;21.82;17.77;98790.97;5047855;28;1065;-74
2022/01/16 06:15:34;;;;;;;;;;;;;;;21.81;17.93;98795.03;5033701;28;1060;-73
2022/01/16 06:18:00;;;;;;;;;;;;;;;21.90;17.69;98799.34;5033782;28;1002;-73
2022/01/16 06:20:26;;;;;;;;;;;;;;;21.98;17.35;98798.03;5033350;28;1898;-73
2022/01/16 06:22:53;;;;;;;;;;;;;;;22.86;16.69;98804.22;5033487;28;987;-73
2022/01/16 06:25:18;;;;;;;;;;;;;;;22.83;16.48;98807.09;5033427;28;1008;-73
2022/01/16 06:27:44;;;;;;;;;;;;;;;22.27;17.31;98810.50;5063690;28;980;-73
2022/01/16 06:30:10;;;;;;;;;;;;;;;22.19;17.08;98820.38;5073528;28;1014;-73
2022/01/16 06:32:35;;;;;;;;;;;;;;;22.08;17.30;98828.22;5070752;28;1574;-72
2022/01/16 06:35:01;;;;;;;;;;;;;;;22.30;16.98;98837.22;5053555;28;981;-72
2022/01/16 06:37:26;;;;;;;;;;;;;;;22.18;17.46;98846.31;5053466;28;1255;-73
2022/01/16 06:39:52;;;;;;;;;;;;;;;22.11;17.34;98847.22;5053182;28;1083;-73
2022/01/16 06:42:17;;;;;;;;;;;;;;;22.03;17.44;98852.19;5053246;28;1891;-72
2022/01/16 06:44:42;;;;;;;;;;;;;;;22.36;17.28;98841.97;5053150;28;894;-72
2022/01/16 06:47:08;;;;;;;;;;;;;;;22.77;16.90;98866.38;5055124;28;947;-73
2022/01/16 06:49:33;;;;;;;;;;;;;;;22.51;17.09;98870.09;5056263;28;946;-73
2022/01/16 06:51:59;;;;;;;;;;;;;;;22.23;17.27;98871.34;5087305;28;1006;-72
2022/01/16 06:54:24;;;;;;;;;;;;;;;22.28;17.13;98868.84;5055320;28;916;-73
2022/01/16 06:56:50;;;;;;;;;;;;;;;22.14;17.17;98886.06;5055818;28;945;-73
2022/01/16 06:59:15;;;;;;;;;;;;;;;21.92;17.58;98884.75;5055465;28;906;-72
2022/01/16 07:01:40;;;;;;;;;;;;;;;22.09;17.64;98883.66;5059515;28;1984;-73
2022/01/16 07:04:06;;;;;;;;;;;;;;;22.34;17.13;98886.97;5059553;28;1086;-73
2022/01/16 07:06:31;;;;;;;;;;;;;;;22.44;17.17;98887.22;5059432;28;881;-72
2022/01/16 07:08:57;;;;;;;;;;;;;;;22.61;16.75;98886.94;5090799;28;967;-72
2022/01/16 07:11:22;;;;;;;;;;;;;;;22.52;16.82;98889.50;5059602;28;1028;-73
2022/01/16 07:13:48;;;;;;;;;;;;;;;22.48;17.23;98888.75;5056919;28;1037;-73
2022/01/16 07:16:14;;;;;;;;;;;;;;;22.96;16.32;98900.97;5059394;28;1010;-73
2022/01/16 07:18:39;;;;;;;;;;;;;;;23.11;16.24;98890.97;5059331;28;975;-73
2022/01/16 07:21:12;;;;;;;;;;;;;;;22.20;17.53;98890.00;5059528;28;1975;-73
2022/01/16 07:23:49;;;;;;;;;;;;;;;21.99;17.43;98895.97;5059510;28;932;-72
2022/01/16 07:26:15;;;;;;;;;;;;;;;22.54;17.06;98903.28;5091458;28;948;-73
2022/01/16 07:28:40;;;;;;;;;;;;;;;23.09;16.23;98916.13;5059132;28;1008;-72
2022/01/16 07:31:05;;;;;;;;;;;;;;;21.95;17.47;98923.53;5096887;28;1049;-72
2022/01/16 07:33:31;;;;;;;;;;;;;;;21.78;17.65;98925.38;5097230;28;991;-73
2022/01/16 07:35:56;;;;;;;;;;;;;;;22.52;16.83;98931.25;5096871;28;1016;-73
2022/01/16 07:38:22;;;;;;;;;;;;;;;23.02;16.73;98922.75;5096789;28;1129;-72
2022/01/16 07:40:47;;;;;;;;;;;;;;;22.69;16.57;98927.34;5096227;28;1926;-73
2022/01/16 07:43:14;;;;;;;;;;;;;;;22.41;17.16;98933.44;5079606;28;940;-73
2022/01/16 07:45:39;;;;;;;;;;;;;;;22.21;17.21;98925.63;5063206;28;1027;-72
2022/01/16 07:48:06;;;;;;;;;;;;;;;22.18;17.46;98918.00;5096587;28;958;-72
2022/01/16 07:50:32;;;;;;;;;;;;;;;22.21;17.26;98919.97;5063137;28;1037;-73
2022/01/16 07:52:58;;;;;;;;;;;;;;;22.15;17.56;98924.50;5096302;28;1012;-72
2022/01/16 07:55:26;;;;;;;;;;;;;;;22.34;17.07;98929.50;5096492;28;1082;-73
2022/01/16 07:57:52;;;;;;;;;;;;;;;22.26;17.19;98930.81;5096411;28;984;-73
2022/01/16 08:00:17;;;;;;;;;;;;;;;22.42;17.29;98933.00;5096156;28;1967;-73
2022/01/16 08:02:43;;;;;;;;;;;;;;;22.38;17.16;98929.41;5031884;28;1078;-73
2022/01/16 08:05:11;;;;;;;;;;;;;;;22.55;16.88;98927.56;5055945;28;956;-73
2022/01/16 08:07:36;;;;;;;;;;;;;;;22.34;17.38;98932.34;5056177;28;1097;-73
2022/01/16 08:10:02;;;;;;;;;;;;;;;22.32;17.04;98931.94;5039288;28;1148;-72
2022/01/16 08:12:27;;;;;;;;;;;;;;;22.36;17.25;98941.19;5055063;28;1055;-73
2022/01/16 08:14:53;;;;;;;;;;;;;;;22.38;16.91;98937.94;5057433;28;955;-73
2022/01/16 08:17:18;;;;;;;;;;;;;;;22.41;17.04;98939.13;5058532;28;921;-72
2022/01/16 08:19:44;;;;;;;;;;;;;;;22.44;16.92;98941.13;5058266;28;962;-72
2022/01/16 08:22:10;;;;;;;;;;;;;;;22.56;17.17;98934.84;5057954;28;1906;-73
2022/01/16 08:24:36;;;;;;;;;;;;;;;22.45;17.04;98939.88;5057828;28;974;-73
2022/01/16 08:27:01;;;;;;;;;;;;;;;22.45;17.34;98945.53;5058024;28;944;-72
2022/01/16 08:29:30;;;;;;;;;;;;;;;22.53;16.89;98947.03;5089482;28;969;-73
2022/01/16 08:31:55;;;;;;;;;;;;;;;22.69;17.06;98938.69;5057733;28;893;-73
2022/01/16 08:34:21;;;;;;;;;;;;;;;22.51;16.93;98926.81;5057967;28;938;-73
2022/01/16 08:36:46;;;;;;;;;;;;;;;22.13;17.70;98929.81;5058172;28;912;-73
2022/01/16 08:39:12;;;;;;;;;;;;;;;21.82;17.71;98938.28;5057926;28;971;-73
2022/01/16 08:41:37;;;;;;;;;;;;;;;21.66;17.84;98935.25;5057658;28;1971;-73
2022/01/16 08:44:06;;;;;;;;;;;;;;;22.12;17.47;98928.19;5057835;28;929;-73
2022/01/16 08:46:31;;;;;;;;;;;;;;;22.28;17.24;98930.41;5057742;28;911;-73
2022/01/16 08:48:57;;;;;;;;;;;;;;;22.24;17.52;98929.66;5057618;28;1009;-73
2022/01/16 08:51:22;;;;;;;;;;;;;;;22.29;17.54;98920.66;5057505;28;1110;-73
2022/01/16 08:53:48;;;;;;;;;;;;;;;22.41;17.28;98924.94;5057383;28;955;-74
2022/01/16 08:56:13;;;;;;;;;;;;;;;22.36;17.18;98924.19;5057704;28;925;-73
2022/01/16 08:58:39;;;;;;;;;;;;;;;22.40;17.25;98920.50;5094768;28;975;-73
2022/01/16 09:01:04;;;;;;;;;;;;;;;22.30;17.24;98917.41;5095385;28;1898;-73
2022/01/16 09:03:30;;;;;;;;;;;;;;;22.43;17.29;98922.47;5094857;28;949;-73
2022/01/16 09:05:55;;;;;;;;;;;;;;;22.55;17.37;98916.22;5095402;28;987;-73
2022/01/16 09:08:21;;;;;;;;;;;;;;;22.47;17.40;98923.22;5095025;28;997;-73
2022/01/16 09:10:46;;;;;;;;;;;;;;;22.51;17.06;98921.94;5095045;28;968;-72
2022/01/16 09:13:15;;;;;;;;;;;;;;;22.52;17.30;98917.06;5095106;28;995;-73
2022/01/16 09:15:41;;;;;;;;;;;;;;;22.53;17.31;98908.13;5095219;28;1140;-73
2022/01/16 09:18:06;;;;;;;;;;;;;;;22.54;17.02;98903.28;5095076;28;1036;-72
2022/01/16 09:20:32;;;;;;;;;;;;;;;22.58;17.17;98910.47;5094654;28;1984;-73
2022/01/16 09:22:58;;;;;;;;;;;;;;;22.62;17.14;98901.91;5073420;28;1772;-73
2022/01/16 09:25:23;;;;;;;;;;;;;;;22.23;17.36;98906.19;5073876;28;967;-72
2022/01/16 09:27:49;;;;;;;;;;;;;;;22.11;17.75;98898.22;5074195;28;924;-73
2022/01/16 09:30:14;;;;;;;;;;;;;;;22.04;17.73;98893.44;5059226;28;1101;-73
2022/01/16 09:32:40;;;;;;;;;;;;;;;22.33;17.31;98896.72;5037700;28;998;-73
2022/01/16 09:35:06;;;;;;;;;;;;;;;22.28;17.32;98885.84;5054559;28;1095;-73
2022/01/16 09:37:31;;;;;;;;;;;;;;;22.22;17.51;98887.53;5054033;28;957;-73
2022/01/16 09:39:58;;;;;;;;;;;;;;;22.25;17.66;98883.84;5054224;28;1074;-73
2022/01/16 09:42:24;;;;;;;;;;;;;;;22.93;17.05;98890.47;5053869;28;1981;-73
2022/01/16 09:44:52;;;;;;;;;;;;;;;22.67;16.92;98883.59;5072478;28;1407;-73
2022/01/16 09:47:18;;;;;;;;;;;;;;;21.39;18.54;98886.19;5090609;28;1087;-72
2022/01/16 09:49:44;;;;;;;;;;;;;;;21.79;18.05;98882.47;5054042;28;1150;-72
2022/01/16 09:52:10;;;;;;;;;;;;;;;21.58;18.19;98882.75;5054000;28;947;-73
2022/01/16 09:54:38;;;;;;;;;;;;;;;22.58;17.17;98887.78;5023816;28;1060;-73
2022/01/16 09:57:04;;;;;;;;;;;;;;;22.89;17.13;98887.69;5014192;28;939;-74
2022/01/16 09:59:32;;;;;;;;;;;;;;;22.14;17.79;98891.72;5013987;28;892;-73
2022/01/16 10:01:58;;;;;;;;;;;;;;;22.26;17.44;98882.63;5013902;28;1975;-73
2022/01/16 10:04:30;;;;;;;;;;;;;;;21.75;18.24;98875.22;5014066;28;980;-72
2022/01/16 10:06:59;;;;;;;;;;;;;;;22.60;17.34;98873.19;5014094;28;1026;-72
2022/01/16 10:09:25;;;;;;;;;;;;;;;22.84;16.82;98873.97;5014029;28;960;-73
2022/01/16 10:11:57;;;;;;;;;;;;;;;22.20;17.68;98861.66;5013903;28;962;-72
2022/01/16 10:14:34;;;;;;;;;;;;;;;21.99;17.96;98861.97;5020773;28;2057;-73
2022/01/16 10:17:08;;;;;;;;;;;;;;;22.00;17.70;98863.56;5033648;28;929;-73
2022/01/16 10:19:33;;;;;;;;;;;;;;;22.93;17.14;98856.41;5016747;28;1003;-72
2022/01/16 10:22:03;;;;;;;;;;;;;;;22.34;17.39;98861.44;5033375;28;1910;-73
2022/01/16 10:24:30;;;;;;;;;;;;;;;22.23;17.32;98855.16;5033569;28;920;-73
2022/01/16 10:27:07;;;;;;;;;;;;;;;21.85;17.97;98858.09;5053832;28;1008;-73
2022/01/16 10:29:34;;;;;;;;;;;;;;;22.82;17.09;98848.88;5073419;28;989;-73
2022/01/16 10:32:18;;;;;;;;;;;;;;;22.94;17.00;98846.66;5073623;28;930;-73
2022/01/16 10:34:44;;;;;;;;;;;;;;;22.36;17.58;98853.31;5072709;28;939;-72
2022/01/16 10:37:21;;;;;;;;;;;;;;;22.36;17.65;98846.84;5073594;28;935;-71
2022/01/16 10:39:52;;;;;;;;;;;;;;;21.72;18.33;98836.44;5073059;28;964;-72
2022/01/16 10:42:18;;;;;;;;;;;;;;;22.59;17.31;98849.69;5073330;28;1891;-71
2022/01/16 10:44:44;;;;;;;;;;;;;;;22.85;16.94;98833.03;5073284;28;950;-72
2022/01/16 10:47:22;;;;;;;;;;;;;;;22.27;17.50;98838.06;5033466;28;1068;-71
2022/01/16 10:49:57;;;;;;;;;;;;;;;22.09;17.70;98844.78;5036860;28;943;-71
2022/01/16 10:52:23;;;;;;;;;;;;;;;22.04;17.96;98835.97;5053103;28;996;-72
2022/01/16 10:54:50;;;;;;;;;;;;;;;22.90;17.08;98823.22;5036593;28;1033;-71
2022/01/16 10:57:26;;;;;;;;;;;;;;;22.39;17.68;98825.34;5048379;28;1094;-72
2022/01/16 11:00:07;;;;;;;;;;;;;;;22.25;17.85;98830.00;5033017;28;1094;-71
2022/01/16 11:02:33;;;;;;;;;;;;;;;22.13;18.17;98819.28;5032750;28;1930;-71
2022/01/16 11:05:09;;;;;;;;;;;;;;;22.77;17.46;98814.53;5032777;28;955;-71
2022/01/16 11:07:34;;;;;;;;;;;;;;;22.17;17.86;98811.47;5033008;28;1051;-72
2022/01/16 11:10:06;;;;;;;;;;;;;;;21.81;18.27;98806.38;5033108;28;1048;-71
2022/01/16 11:12:35;;;;;;;;;;;;;;;22.36;17.74;98813.59;5033134;28;1189;-72
2022/01/16 11:15:02;;;;;;;;;;;;;;;23.26;16.71;98807.13;5032982;28;962;-72
2022/01/16 11:17:27;;;;;;;;;;;;;;;22.38;17.64;98803.84;5037381;28;971;-71
2022/01/16 11:19:53;;;;;;;;;;;;;;;21.77;18.09;98794.28;5069466;28;1058;-71
2022/01/16 11:22:23;;;;;;;;;;;;;;;22.08;18.20;98797.03;5069805;28;1972;-72
2022/01/16 11:25:01;;;;;;;;;;;;;;;23.04;17.21;98805.91;5052836;28;925;-71
2022/01/16 11:27:26;;;;;;;;;;;;;;;22.03;18.04;98801.16;5052944;28;1017;-71
2022/01/16 11:29:52;;;;;;;;;;;;;;;21.65;18.37;98797.66;5069165;28;1078;-71
2022/01/16 11:32:17;;;;;;;;;;;;;;;21.77;18.62;98799.94;5052616;28;1061;-71
2022/01/16 11:34:43;;;;;;;;;;;;;;;23.01;17.18;98801.94;5069470;28;1030;-72
2022/01/16 11:37:08;;;;;;;;;;;;;;;22.53;17.75;98808.06;5093015;28;1065;-72
2022/01/16 11:39:35;;;;;;;;;;;;;;;22.17;18.06;98793.69;5076138;28;1136;-71
2022/01/16 11:42:00;;;;;;;;;;;;;;;21.74;18.46;98800.78;5092668;28;1906;-72
2022/01/16 11:44:27;;;;;;;;;;;;;;;22.67;17.32;98793.63;5092960;28;978;-71
2022/01/16 11:46:55;;;;;;;;;;;;;;;22.64;17.55;98794.50;5111345;28;1003;-71
2022/01/16 11:49:46;;;;;;;;;;;;;;;21.69;18.47;98798.44;5116828;28;974;-71
2022/01/16 11:52:13;;;;;;;;;;;;;;;21.79;18.33;98791.81;5076082;28;1081;-72
2022/01/16 11:54:38;;;;;;;;;;;;;;;22.96;17.36;98801.63;5076075;28;978;-72
2022/01/16 11:57:16;;;;;;;;;;;;;;;22.81;17.41;98799.03;5042554;28;1232;-72
2022/01/16 11:59:44;;;;;;;;;;;;;;;21.79;18.44;98797.47;5035923;28;950;-72
2022/01/16 12:02:09;;;;;;;;;;;;;;;22.30;18.06;98797.53;5035946;28;1976;-72
2022/01/16 12:04:37;;;;;;;;;;;;;;;23.07;17.00;98793.72;5036362;28;987;-72
2022/01/16 12:07:12;;;;;;;;;;;;;;;22.64;17.55;98803.00;5034016;28;965;-72
2022/01/16 12:09:40;;;;;;;;;;;;;;;22.22;18.11;98801.69;4996687;28;931;-72
2022/01/16 12:12:29;;;;;;;;;;;;;;;22.16;17.89;98798.56;4996552;28;1199;-72
2022/01/16 12:14:58;;;;;;;;;;;;;;;22.91;17.31;98796.47;4957436;29;1129;-72
2022/01/16 12:17:24;;;;;;;;;;;;;;;22.91;17.38;98788.75;4957561;29;1054;-72
2022/01/16 12:19:50;;;;;;;;;;;;;;;21.90;18.40;98796.50;4957582;29;1021;-72
2022/01/16 12:22:17;;;;;;;;;;;;;;;21.65;18.50;98789.16;4957349;29;1903;-72
2022/01/16 12:24:47;;;;;;;;;;;;;;;22.21;18.26;98798.06;4957441;29;980;-72
2022/01/16 12:27:35;;;;;;;;;;;;;;;22.04;18.28;98785.75;4957461;29;960;-72
2022/01/16 12:30:16;;;;;;;;;;;;;;;22.22;18.08;98790.34;4977696;28;927;-73
2022/01/16 12:32:51;;;;;;;;;;;;;;;21.86;18.52;98790.88;4996373;28;1025;-72
2022/01/16 12:35:40;;;;;;;;;;;;;;;21.84;18.60;98785.66;4995592;28;997;-72
2022/01/16 12:38:06;;;;;;;;;;;;;;;22.10;18.24;98783.25;4957376;29;1052;-72
2022/01/16 12:40:31;;;;;;;;;;;;;;;22.05;18.19;98781.69;4957326;29;1993;-72
2022/01/16 12:42:57;;;;;;;;;;;;;;;22.21;18.13;98786.72;4937910;29;1024;-71
2022/01/16 12:45:22;;;;;;;;;;;;;;;22.29;18.19;98791.06;4937758;29;958;-72
2022/01/16 12:47:48;;;;;;;;;;;;;;;22.97;17.46;98784.16;4937783;29;957;-72
2022/01/16 12:50:13;;;;;;;;;;;;;;;23.01;17.22;98787.75;4937598;29;1088;-72
2022/01/16 12:52:46;;;;;;;;;;;;;;;21.79;18.47;98780.47;4923168;29;1426;-72
2022/01/16 12:55:11;;;;;;;;;;;;;;;21.77;18.67;98771.63;4918621;29;1030;-72
2022/01/16 12:57:37;;;;;;;;;;;;;;;22.66;17.84;98777.84;4949841;28;985;-72
2022/01/16 13:00:11;;;;;;;;;;;;;;;22.66;17.56;98774.22;4918527;29;1110;-72
2022/01/16 13:02:37;;;;;;;;;;;;;;;22.26;18.00;98780.56;4945098;28;1914;-72
2022/01/16 13:05:02;;;;;;;;;;;;;;;21.99;18.26;98766.41;4956700;28;1026;-72
2022/01/16 13:07:28;;;;;;;;;;;;;;;22.15;18.02;98768.59;5053942;28;1012;-73
2022/01/16 13:09:53;;;;;;;;;;;;;;;22.56;17.75;98770.31;5054765;28;1062;-72
2022/01/16 13:12:19;;;;;;;;;;;;;;;22.54;17.91;98775.66;5054605;28;944;-72
2022/01/16 13:14:44;;;;;;;;;;;;;;;22.30;17.97;98764.31;5092484;27;1021;-72
2022/01/16 13:17:11;;;;;;;;;;;;;;;22.19;18.06;98763.69;5136021;27;1102;-71
2022/01/16 13:19:50;;;;;;;;;;;;;;;22.96;17.52;98759.06;5135895;27;1048;-71
2022/01/16 13:22:16;;;;;;;;;;;;;;;22.63;17.49;98767.34;5135979;27;1913;-71
2022/01/16 13:24:50;;;;;;;;;;;;;;;22.30;17.90;98757.84;5135495;27;919;-72
2022/01/16 13:27:16;;;;;;;;;;;;;;;21.82;18.66;98762.63;5135752;27;1020;-72
2022/01/16 13:29:42;;;;;;;;;;;;;;;22.68;17.68;98761.19;5135698;27;1078;-72
2022/01/16 13:32:09;;;;;;;;;;;;;;;22.94;17.35;98762.31;5135682;27;1121;-71
2022/01/16 13:34:41;;;;;;;;;;;;;;;22.49;18.07;98759.13;5135477;27;1015;-73
2022/01/16 13:37:07;;;;;;;;;;;;;;;22.09;18.38;98767.47;5100924;27;1274;-72
2022/01/16 13:39:36;;;;;;;;;;;;;;;22.07;18.37;98761.41;5059863;27;991;-72
2022/01/16 13:42:24;;;;;;;;;;;;;;;22.57;17.71;98760.59;5056334;28;1910;-72
2022/01/16 13:44:49;;;;;;;;;;;;;;;22.50;17.89;98755.84;5056329;28;993;-72